Time;durP1;ratioP1;P1;durP2;ratioP2;P2;SDS_P1;SDS_P2;PMS_P1;PMS_P2;Temp;Humidity;BMP_temperature;BMP_pressure;BME280_temperature;BME280_humidity;BME280_pressure;Samples;Min_cycle;Max_cycle;Signal;HPM_P1;HPM_P2
2024/02/12 00:02:23;;;;;;;8.50;2.53;;;26.80;59.30;;;;;;5065814;28;20242;-71
2024/02/12 00:04:51;;;;;;;12.50;2.80;;;26.60;60.10;;;;;;5063246;28;20294;-71
2024/02/12 00:07:18;;;;;;;9.60;2.37;;;26.60;60.80;;;;;;5068677;28;20195;-73
2024/02/12 00:09:47;;;;;;;15.20;2.50;;;26.50;60.70;;;;;;5061985;28;20187;-72
2024/02/12 00:12:16;;;;;;;12.17;2.60;;;26.90;60.40;;;;;;5056035;28;20188;-72
2024/02/12 00:14:45;;;;;;;10.00;2.77;;;27.40;59.30;;;;;;5061426;28;20638;-72
2024/02/12 00:17:15;;;;;;;9.00;2.13;;;27.40;58.20;;;;;;5062868;28;20186;-71
2024/02/12 00:19:43;;;;;;;10.00;1.90;;;27.60;58.20;;;;;;5063531;28;20288;-71
2024/02/12 00:22:10;;;;;;;10.40;2.50;;;27.90;57.60;;;;;;5068117;28;20191;-71
2024/02/12 00:24:37;;;;;;;9.87;2.30;;;28.20;56.40;;;;;;5067705;28;20189;-69
2024/02/12 00:27:07;;;;;;;9.03;2.47;;;28.30;56.50;;;;;;5060058;28;20549;-70
2024/02/12 00:29:34;;;;;;;10.00;2.23;;;28.70;55.60;;;;;;5061075;28;20584;-71
2024/02/12 00:32:03;;;;;;;6.53;2.03;;;28.10;56.50;;;;;;5065051;28;20211;-69
2024/02/12 00:34:33;;;;;;;8.80;2.07;;;28.10;56.60;;;;;;5066035;28;20266;-70
2024/02/12 00:37:01;;;;;;;11.17;2.43;;;28.30;57.20;;;;;;5066493;28;20630;-71
2024/02/12 00:39:32;;;;;;;11.23;2.10;;;28.70;55.40;;;;;;5064238;28;20215;-70
2024/02/12 00:42:00;;;;;;;10.33;2.07;;;28.60;55.90;;;;;;5065810;28;20185;-70
2024/02/12 00:44:27;;;;;;;8.83;2.20;;;28.70;55.40;;;;;;5064689;28;20672;-71
2024/02/12 00:46:54;;;;;;;8.90;2.67;;;28.50;55.80;;;;;;5066713;28;20566;-71
2024/02/12 00:49:23;;;;;;;11.33;2.63;;;28.40;56.00;;;;;;5062914;28;20187;-72
2024/02/12 00:51:51;;;;;;;8.83;2.20;;;28.50;56.00;;;;;;5059412;28;20237;-72
2024/02/12 00:54:18;;;;;;;11.00;2.00;;;28.40;56.30;;;;;;5056948;28;20190;-70
2024/02/12 00:56:45;;;;;;;11.40;2.40;;;28.30;56.50;;;;;;5060538;28;20295;-71
2024/02/12 00:59:17;;;;;;;8.87;2.50;;;28.50;56.00;;;;;;5062199;28;20230;-70
2024/02/12 01:01:45;;;;;;;10.63;2.67;;;28.70;56.20;;;;;;5055149;28;20747;-70
2024/02/12 01:04:12;;;;;;;13.53;2.93;;;28.50;56.20;;;;;;5054861;28;20199;-75
2024/02/12 01:06:40;;;;;;;10.70;2.40;;;28.90;55.20;;;;;;5056476;28;20249;-73
2024/02/12 01:09:11;;;;;;;10.00;2.40;;;28.80;55.40;;;;;;5057732;28;20192;-72
2024/02/12 01:11:39;;;;;;;6.40;1.93;;;28.60;55.20;;;;;;5054454;28;20188;-70
2024/02/12 01:14:07;;;;;;;13.30;2.83;;;28.20;57.30;;;;;;5053777;28;20184;-72
2024/02/12 01:16:35;;;;;;;13.87;2.57;;;28.10;57.10;;;;;;5055180;28;20234;-72
2024/02/12 01:19:04;;;;;;;12.77;2.23;;;28.30;57.20;;;;;;5056210;28;20261;-73
2024/02/12 01:21:34;;;;;;;8.67;2.50;;;28.30;57.50;;;;;;5061276;28;20188;-75
2024/02/12 01:24:02;;;;;;;9.10;2.30;;;28.30;57.00;;;;;;5053602;28;20219;-73
2024/02/12 01:26:34;;;;;;;11.27;2.57;;;28.60;56.60;;;;;;5061896;28;20213;-73
2024/02/12 01:29:03;;;;;;;11.50;2.40;;;28.80;56.20;;;;;;5061180;28;20199;-75
2024/02/12 01:31:31;;;;;;;8.07;2.20;;;29.10;55.40;;;;;;5074605;28;20668;-72
2024/02/12 01:33:58;;;;;;;7.63;2.47;;;28.80;56.00;;;;;;5074140;28;20179;-75
2024/02/12 01:36:26;;;;;;;11.87;2.70;;;28.20;58.00;;;;;;5074479;28;20323;-73
2024/02/12 01:38:53;;;;;;;11.63;2.70;;;28.30;57.90;;;;;;5073995;28;20211;-73
2024/02/12 01:41:21;;;;;;;10.70;2.30;;;28.60;57.10;;;;;;5074593;28;20184;-75
2024/02/12 01:43:50;;;;;;;17.53;2.87;;;28.50;57.50;;;;;;5060610;28;20187;-72
2024/02/12 01:46:19;;;;;;;10.97;2.77;;;28.60;57.10;;;;;;5073660;28;20190;-73
2024/02/12 01:48:47;;;;;;;12.77;2.60;;;28.40;58.10;;;;;;5074630;28;20195;-73
2024/02/12 01:51:16;;;;;;;14.60;2.73;;;28.60;57.90;;;;;;5074632;28;20218;-73
2024/02/12 01:53:47;;;;;;;11.47;2.50;;;28.70;57.30;;;;;;5061699;28;20176;-72
2024/02/12 01:56:14;;;;;;;10.57;2.83;;;28.80;57.30;;;;;;5074682;28;20533;-72
2024/02/12 01:58:43;;;;;;;9.43;2.50;;;29.30;55.60;;;;;;5074446;28;20202;-72
2024/02/12 02:01:16;;;;;;;15.30;2.47;;;29.30;55.50;;;;;;5061161;28;20175;-73
2024/02/12 02:03:44;;;;;;;11.73;2.70;;;29.20;56.00;;;;;;5074540;28;20194;-71
2024/02/12 02:06:13;;;;;;;7.80;2.30;;;29.30;55.20;;;;;;5074733;28;20175;-70
2024/02/12 02:08:41;;;;;;;8.10;2.33;;;29.30;55.80;;;;;;5072774;28;20233;-70
2024/02/12 02:11:10;;;;;;;6.47;2.03;;;29.10;55.80;;;;;;5073224;28;20527;-72
2024/02/12 02:13:42;;;;;;;13.83;2.50;;;29.00;57.00;;;;;;5074143;28;20233;-70
2024/02/12 02:16:11;;;;;;;12.37;2.43;;;29.20;56.50;;;;;;5074255;28;20183;-72
2024/02/12 02:18:38;;;;;;;13.77;2.60;;;28.90;56.80;;;;;;5074474;28;20694;-71
2024/02/12 02:21:12;;;;;;;21.83;3.27;;;29.00;57.00;;;;;;5074463;28;20220;-75
2024/02/12 02:23:42;;;;;;;10.03;2.47;;;29.10;56.80;;;;;;5066949;28;20183;-71
2024/02/12 02:26:10;;;;;;;9.37;2.83;;;29.10;57.20;;;;;;5071596;28;20277;-71
2024/02/12 02:28:38;;;;;;;10.67;2.27;;;29.60;55.60;;;;;;5074196;28;20224;-74
2024/02/12 02:31:05;;;;;;;14.93;2.83;;;29.50;55.90;;;;;;5073765;28;20658;-70
2024/02/12 02:33:35;;;;;;;10.27;2.47;;;29.00;57.30;;;;;;5073835;28;20231;-72
2024/02/12 02:36:03;;;;;;;11.00;2.67;;;29.30;57.10;;;;;;5073675;28;20584;-71
2024/02/12 02:38:31;;;;;;;11.80;2.13;;;29.30;56.30;;;;;;5073279;28;20188;-71
2024/02/12 02:40:58;;;;;;;9.83;2.67;;;29.50;56.00;;;;;;5073085;28;20211;-72
2024/02/12 02:43:26;;;;;;;13.53;2.60;;;29.10;57.30;;;;;;5053244;28;20291;-72
2024/02/12 02:45:59;;;;;;;10.60;2.23;;;29.30;56.30;;;;;;5067035;28;20183;-71
2024/02/12 02:48:28;;;;;;;12.40;2.67;;;29.10;57.00;;;;;;5070748;28;20262;-72
2024/02/12 02:50:57;;;;;;;13.47;2.27;;;29.60;56.30;;;;;;5073523;28;20175;-71
2024/02/12 02:53:24;;;;;;;10.73;3.00;;;29.20;56.80;;;;;;5066809;28;20222;-71
2024/02/12 02:55:52;;;;;;;12.73;2.50;;;29.30;56.30;;;;;;5068632;28;20650;-71
2024/02/12 02:58:20;;;;;;;11.80;3.10;;;29.30;56.00;;;;;;5073715;28;20214;-71
2024/02/12 03:00:47;;;;;;;10.60;2.80;;;29.60;55.70;;;;;;5065452;28;20257;-71
2024/02/12 03:03:14;;;;;;;10.23;2.40;;;30.00;55.40;;;;;;5073363;28;20544;-71
2024/02/12 03:05:41;;;;;;;11.60;2.93;;;29.70;55.70;;;;;;5068703;28;20180;-71
2024/02/12 03:08:09;;;;;;;10.90;2.83;;;30.30;55.20;;;;;;5060425;28;20199;-71
2024/02/12 03:10:37;;;;;;;10.20;2.25;;;30.50;53.20;;;;;;5063731;28;20590;-71
2024/02/12 03:13:04;;;;;;;12.85;2.50;;;30.10;54.40;;;;;;5058222;28;20658;-74
2024/02/12 03:15:34;;;;;;;11.13;2.40;;;30.50;53.70;;;;;;5054600;28;20183;-71
2024/02/12 03:18:02;;;;;;;11.20;2.30;;;29.90;54.40;;;;;;5055796;28;20274;-72
2024/02/12 03:20:29;;;;;;;7.23;2.17;;;30.00;54.20;;;;;;5064489;28;20182;-73
2024/02/12 03:22:56;;;;;;;7.10;1.90;;;29.90;54.80;;;;;;5069807;28;20183;-70
2024/02/12 03:25:24;;;;;;;6.90;1.95;;;30.60;53.40;;;;;;5066515;28;20183;-70
2024/02/12 03:27:51;;;;;;;10.77;2.47;;;31.10;51.90;;;;;;5060298;28;20634;-70
2024/02/12 03:30:18;;;;;;;7.35;2.38;;;30.70;52.70;;;;;;5064323;28;20179;-72
2024/02/12 03:32:46;;;;;;;7.30;2.20;;;31.10;50.80;;;;;;5068163;28;20240;-73
2024/02/12 03:35:13;;;;;;;12.48;2.92;;;30.60;53.00;;;;;;5062602;28;20239;-72
2024/02/12 03:37:41;;;;;;;7.82;2.00;;;30.70;51.90;;;;;;5071110;28;20222;-72
2024/02/12 03:40:12;;;;;;;6.53;1.88;;;30.90;51.40;;;;;;5063414;28;20223;-70
2024/02/12 03:42:39;;;;;;;10.73;2.30;;;31.30;50.60;;;;;;5066193;28;20187;-72
2024/02/12 03:45:15;;;;;;;10.43;1.95;;;31.30;50.00;;;;;;5066532;28;20203;-71
2024/02/12 03:47:43;;;;;;;9.10;2.05;;;31.40;50.20;;;;;;5065034;28;20183;-72
2024/02/12 04:01:28;;;;;;;9.73;1.92;;;31.50;49.20;;;;;;5055659;28;20214;-71
2024/02/12 04:03:55;;;;;;;7.70;2.00;;;31.50;49.60;;;;;;5066308;28;20615;-73
2024/02/12 04:06:24;;;;;;;9.05;2.38;;;31.30;49.60;;;;;;5065244;28;20179;-72
2024/02/12 04:08:52;;;;;;;8.18;2.20;;;31.40;49.10;;;;;;5073710;28;20207;-73
2024/02/12 04:11:19;;;;;;;9.05;2.30;;;30.50;51.40;;;;;;5061393;28;20189;-70
2024/02/12 04:13:47;;;;;;;6.95;2.45;;;30.40;52.80;;;;;;5073169;28;20220;-73
2024/02/12 04:16:14;;;;;;;9.98;2.45;;;30.80;51.20;;;;;;5074883;28;20209;-72
2024/02/12 04:18:42;;;;;;;7.07;1.95;;;30.70;51.70;;;;;;5057293;28;20204;-70
2024/02/12 04:21:09;;;;;;;7.15;1.67;;;30.80;50.90;;;;;;5085086;28;20536;-72
2024/02/12 04:23:38;;;;;;;6.50;1.92;;;31.30;49.60;;;;;;5066477;28;20183;-71
2024/02/12 04:26:10;;;;;;;8.77;2.15;;;31.70;49.30;;;;;;5060109;28;20183;-71
2024/02/12 04:28:40;;;;;;;5.68;1.63;;;31.70;49.30;;;;;;5066556;28;20306;-78
2024/02/12 04:31:07;;;;;;;10.90;2.13;;;31.10;50.50;;;;;;5058937;28;20175;-73
2024/02/12 04:33:34;;;;;;;11.30;2.25;;;31.20;50.00;;;;;;5056603;28;20175;-76
2024/02/12 04:36:02;;;;;;;9.45;1.90;;;31.10;50.80;;;;;;5066838;28;20248;-70
2024/02/12 04:38:33;;;;;;;7.10;1.73;;;31.90;50.10;;;;;;5063977;28;20199;-73
2024/02/12 04:41:01;;;;;;;12.63;2.45;;;31.50;49.60;;;;;;5058643;28;20199;-72
2024/02/12 04:43:28;;;;;;;9.13;2.45;;;31.50;50.20;;;;;;5062554;28;20183;-70
2024/02/12 04:45:56;;;;;;;9.32;2.17;;;32.20;48.70;;;;;;5070755;28;20179;-74
2024/02/12 04:48:24;;;;;;;9.15;2.20;;;30.70;51.80;;;;;;5064024;28;20179;-75
2024/02/12 04:50:52;;;;;;;7.93;2.25;;;30.90;53.00;;;;;;5072688;28;20245;-76
2024/02/12 04:53:19;;;;;;;9.52;2.35;;;30.90;52.70;;;;;;5068180;28;20191;-73
2024/02/12 04:55:47;;;;;;;9.45;2.15;;;31.30;52.30;;;;;;5066374;28;20187;-78
2024/02/12 04:58:14;;;;;;;12.05;2.60;;;31.30;52.00;;;;;;5063199;28;20598;-76
2024/02/12 05:00:41;;;;;;;9.88;2.47;;;31.40;51.50;;;;;;5065074;28;20202;-74
2024/02/12 05:03:09;;;;;;;9.40;2.80;;;31.30;53.10;;;;;;5066210;28;20176;-77
2024/02/12 05:05:36;;;;;;;9.40;2.50;;;31.60;53.20;;;;;;5064227;28;20183;-77
2024/02/12 05:08:04;;;;;;;9.27;2.40;;;31.70;52.50;;;;;;5073247;28;20198;-76
2024/02/12 05:10:31;;;;;;;11.02;2.53;;;31.80;52.90;;;;;;5070175;28;20190;-78
2024/02/12 05:12:59;;;;;;;10.13;2.08;;;31.90;52.60;;;;;;5059878;28;20180;-70
2024/02/12 05:15:30;;;;;;;7.75;2.15;;;31.80;52.90;;;;;;5069083;28;20638;-73
2024/02/12 05:23:49;;;;;;;9.23;1.70;;;31.00;55.10;;;;;;5019460;28;20247;-74
2024/02/12 05:26:19;;;;;;;10.23;2.30;;;31.00;54.30;;;;;;5048153;28;20195;-74
2024/02/12 05:28:46;;;;;;;7.72;2.45;;;30.60;55.50;;;;;;5066500;28;20183;-71
2024/02/12 05:31:14;;;;;;;11.75;2.83;;;30.80;55.10;;;;;;5059830;28;20195;-72
2024/02/12 05:33:41;;;;;;;10.30;2.58;;;30.70;55.70;;;;;;5069150;28;20179;-71
2024/02/12 05:36:17;;;;;;;9.52;2.40;;;30.50;56.70;;;;;;5069850;28;20265;-71
2024/02/12 05:38:49;;;;;;;12.95;2.80;;;31.30;54.70;;;;;;5062035;28;20214;-71
2024/02/12 05:41:16;;;;;;;13.15;2.63;;;31.10;55.10;;;;;;5064286;28;20191;-74
2024/02/12 05:43:43;;;;;;;10.10;2.53;;;31.80;53.90;;;;;;5070579;28;20175;-71
2024/02/12 05:46:12;;;;;;;12.73;2.70;;;31.80;53.20;;;;;;5066109;28;20283;-72
2024/02/12 05:48:40;;;;;;;12.48;2.72;;;32.00;53.10;;;;;;5067747;28;20278;-74
2024/02/12 05:51:09;;;;;;;5.88;1.83;;;31.80;54.30;;;;;;5068068;28;20240;-72
2024/02/12 05:53:37;;;;;;;13.32;3.08;;;31.80;53.60;;;;;;5067019;28;20203;-71
2024/02/12 05:56:04;;;;;;;12.27;2.40;;;32.10;53.00;;;;;;5070966;28;20672;-71
2024/02/12 05:58:32;;;;;;;7.88;2.20;;;31.80;53.80;;;;;;5066780;28;20250;-72
2024/02/12 06:00:59;;;;;;;12.07;2.80;;;32.00;53.40;;;;;;5069208;28;20196;-74
2024/02/12 06:03:26;;;;;;;11.20;2.80;;;32.30;53.00;;;;;;5066445;28;20184;-74
2024/02/12 06:05:54;;;;;;;9.38;2.53;;;31.80;54.00;;;;;;5062394;28;20522;-71
2024/02/12 06:08:21;;;;;;;12.55;2.92;;;31.80;55.10;;;;;;5066677;28;20183;-75
2024/02/12 06:10:48;;;;;;;11.27;2.53;;;32.00;53.60;;;;;;5066796;28;20175;-71
2024/02/12 06:13:17;;;;;;;10.80;2.60;;;31.50;55.20;;;;;;5065934;28;20494;-71
2024/02/12 06:16:00;;;;;;;17.00;2.67;;;31.60;54.90;;;;;;5066496;28;20567;-72
2024/02/12 06:18:28;;;;;;;11.90;2.53;;;31.50;54.80;;;;;;5070058;28;20211;-72
2024/02/12 06:20:55;;;;;;;15.35;2.72;;;31.40;56.30;;;;;;5068806;28;20238;-73
2024/02/12 06:23:24;;;;;;;13.77;2.55;;;32.20;54.00;;;;;;5065425;28;20179;-74
2024/02/12 06:25:52;;;;;;;12.10;2.40;;;32.30;53.30;;;;;;5063652;28;20187;-73
2024/02/12 06:28:20;;;;;;;14.65;2.92;;;32.40;53.80;;;;;;5071611;28;20214;-71
2024/02/12 06:30:47;;;;;;;14.27;3.05;;;31.80;55.20;;;;;;5061470;28;20180;-74
2024/02/12 06:33:15;;;;;;;12.32;3.40;;;31.80;55.30;;;;;;5060203;28;20187;-72
2024/02/12 06:35:42;;;;;;;12.60;2.50;;;32.30;54.60;;;;;;5066697;28;20249;-72
2024/02/12 06:38:09;;;;;;;12.48;3.08;;;32.20;54.30;;;;;;5062849;28;20222;-72
2024/02/12 06:40:37;;;;;;;11.63;2.70;;;31.30;57.00;;;;;;5069306;28;20187;-73
2024/02/12 06:43:04;;;;;;;13.73;2.97;;;31.10;58.10;;;;;;5063850;28;20176;-70
2024/02/12 06:45:33;;;;;;;10.98;3.15;;;31.10;58.30;;;;;;5063173;28;20316;-72
2024/02/12 06:48:00;;;;;;;13.93;3.40;;;31.10;58.80;;;;;;5073085;28;20209;-75
2024/02/12 06:50:27;;;;;;;11.90;2.28;;;31.30;58.60;;;;;;5072274;28;20198;-73
2024/02/12 06:52:55;;;;;;;11.93;3.17;;;31.30;57.60;;;;;;5073005;28;20261;-75
2024/02/12 06:55:22;;;;;;;11.80;2.20;;;30.80;59.90;;;;;;5072205;28;20690;-73
2024/02/12 06:57:50;;;;;;;15.40;2.85;;;31.00;59.30;;;;;;5070672;28;20183;-71
2024/02/12 07:00:19;;;;;;;11.05;2.90;;;30.60;60.60;;;;;;5074570;28;20225;-76
2024/02/12 07:02:46;;;;;;;16.58;3.10;;;30.10;62.00;;;;;;5075559;28;20386;-72
2024/02/12 07:05:17;;;;;;;11.70;2.72;;;30.40;61.30;;;;;;5075542;28;20188;-72
2024/02/12 07:07:48;;;;;;;16.17;3.17;;;30.50;61.20;;;;;;5080073;28;20190;-71
2024/02/12 07:10:15;;;;;;;12.57;2.60;;;29.70;64.50;;;;;;5075056;28;20186;-72
2024/02/12 07:12:43;;;;;;;12.13;2.97;;;29.90;62.90;;;;;;5078246;28;20589;-70
2024/02/12 07:15:11;;;;;;;9.55;2.50;;;30.10;62.20;;;;;;5069283;28;20210;-75
2024/02/12 07:17:38;;;;;;;17.85;2.95;;;29.70;63.80;;;;;;5072378;28;20179;-72
2024/02/12 07:20:09;;;;;;;18.23;3.88;;;29.50;64.50;;;;;;5073441;28;20215;-72
2024/02/12 07:22:37;;;;;;;14.27;3.47;;;29.30;65.30;;;;;;5072156;28;20661;-73
2024/02/12 07:25:05;;;;;;;12.82;2.88;;;30.10;63.80;;;;;;5072665;28;20632;-71
2024/02/12 07:27:32;;;;;;;13.80;3.22;;;30.70;61.00;;;;;;5075267;28;20187;-71
2024/02/12 07:30:00;;;;;;;12.70;3.00;;;30.90;60.80;;;;;;5065466;28;20266;-71
2024/02/12 07:32:27;;;;;;;18.35;3.10;;;30.40;61.60;;;;;;5071767;28;20191;-75
2024/02/12 07:34:55;;;;;;;12.23;2.70;;;29.80;63.40;;;;;;5073330;28;20210;-72
2024/02/12 07:37:25;;;;;;;13.30;2.97;;;29.50;65.30;;;;;;5072884;28;20201;-72
2024/02/12 07:39:52;;;;;;;13.20;3.00;;;29.70;64.50;;;;;;5078707;28;20214;-70
2024/02/12 07:42:20;;;;;;;13.13;2.95;;;29.60;64.90;;;;;;5072542;28;20182;-72
2024/02/12 07:44:48;;;;;;;15.67;2.93;;;29.40;65.20;;;;;;5068629;28;20645;-72
2024/02/12 07:47:17;;;;;;;11.30;2.60;;;29.40;65.30;;;;;;5073825;28;20195;-71
2024/02/12 07:49:45;;;;;;;15.13;3.67;;;29.20;66.10;;;;;;5073092;28;20187;-71
2024/02/12 07:52:15;;;;;;;11.13;2.90;;;29.10;66.20;;;;;;5075037;28;20236;-71
2024/02/12 07:54:44;;;;;;;15.43;3.30;;;29.00;66.80;;;;;;5072115;28;20187;-73
2024/02/12 07:57:12;;;;;;;17.53;3.27;;;28.40;68.20;;;;;;5070787;28;20270;-72
2024/02/12 07:59:41;;;;;;;12.93;2.50;;;27.80;70.00;;;;;;5075853;28;20301;-72
2024/02/12 08:02:08;;;;;;;12.23;3.03;;;27.20;72.20;;;;;;5072659;28;20187;-70
2024/02/12 08:04:36;;;;;;;11.07;2.90;;;27.10;72.70;;;;;;5068216;28;20571;-73
2024/02/12 08:07:04;;;;;;;16.13;2.67;;;26.90;73.10;;;;;;5072406;28;20176;-72
2024/02/12 08:09:35;;;;;;;12.00;2.60;;;26.60;73.90;;;;;;5073515;28;20182;-72
2024/02/12 08:12:05;;;;;;;12.97;2.33;;;26.50;74.90;;;;;;5071611;28;20183;-70
2024/02/12 08:14:38;;;;;;;13.23;2.83;;;26.50;75.00;;;;;;5072732;28;20264;-72
2024/02/12 08:17:06;;;;;;;15.17;2.87;;;26.30;75.40;;;;;;5080697;28;20518;-72
2024/02/12 08:19:34;;;;;;;13.30;3.27;;;26.20;75.80;;;;;;5072094;28;20234;-73
2024/02/12 08:22:01;;;;;;;9.67;2.10;;;26.20;76.10;;;;;;5071283;28;20179;-73
2024/02/12 08:24:29;;;;;;;15.30;3.27;;;26.10;76.60;;;;;;5071763;28;20198;-74
2024/02/12 08:26:56;;;;;;;17.37;3.33;;;26.00;76.50;;;;;;5068378;28;20535;-71
2024/02/12 08:29:24;;;;;;;16.77;2.80;;;26.00;76.70;;;;;;5071164;28;20179;-72
2024/02/12 08:31:51;;;;;;;9.30;2.63;;;25.90;76.90;;;;;;5071670;28;20569;-71
2024/02/12 08:34:18;;;;;;;11.03;2.30;;;25.80;77.00;;;;;;5071541;28;20182;-71
2024/02/12 08:36:46;;;;;;;9.27;2.50;;;25.80;76.50;;;;;;5071867;28;20231;-72
2024/02/12 08:39:13;;;;;;;14.40;3.03;;;25.80;76.60;;;;;;5072533;28;20738;-72
2024/02/12 08:41:41;;;;;;;12.20;2.70;;;25.80;77.10;;;;;;5075988;28;20645;-71
2024/02/12 08:44:09;;;;;;;12.67;2.67;;;25.80;76.90;;;;;;5072198;28;20298;-70
2024/02/12 08:46:37;;;;;;;9.53;2.20;;;25.80;77.20;;;;;;5072596;28;20185;-72
2024/02/12 08:49:04;;;;;;;14.07;2.73;;;25.80;77.20;;;;;;5076134;28;20176;-70
2024/02/12 08:51:32;;;;;;;13.70;3.03;;;25.70;77.20;;;;;;5073475;28;20214;-71
2024/02/12 08:54:00;;;;;;;11.50;2.47;;;25.70;77.50;;;;;;5075165;28;20697;-71
2024/02/12 08:56:28;;;;;;;14.43;2.70;;;25.60;77.50;;;;;;5074758;28;20191;-71
2024/02/12 08:58:56;;;;;;;9.83;2.27;;;25.60;77.40;;;;;;5074655;28;20681;-71
2024/02/12 09:01:23;;;;;;;10.77;2.60;;;25.50;77.60;;;;;;5074925;28;20218;-71
2024/02/12 09:03:56;;;;;;;12.73;2.50;;;25.60;77.70;;;;;;5063635;28;20234;-73
2024/02/12 09:06:23;;;;;;;11.83;3.30;;;25.60;77.70;;;;;;5075051;28;20183;-72
2024/02/12 09:08:51;;;;;;;10.20;2.27;;;25.50;77.80;;;;;;5075142;28;20245;-71
2024/02/12 09:11:19;;;;;;;12.97;3.17;;;25.50;77.80;;;;;;5072953;28;20641;-70
2024/02/12 09:13:47;;;;;;;16.80;2.93;;;25.50;78.10;;;;;;5073618;28;20180;-71
2024/02/12 09:16:16;;;;;;;17.67;2.63;;;25.50;78.50;;;;;;5074452;28;20179;-71
2024/02/12 09:18:46;;;;;;;15.30;2.83;;;25.40;78.60;;;;;;5074803;28;20242;-71
2024/02/12 09:21:14;;;;;;;16.23;2.87;;;25.40;78.70;;;;;;5074830;28;20245;-71
2024/02/12 09:23:41;;;;;;;12.53;2.57;;;25.50;79.00;;;;;;5073289;28;20214;-72
2024/02/12 09:26:09;;;;;;;11.67;3.03;;;25.40;78.70;;;;;;5072879;28;20269;-70
2024/02/12 09:28:38;;;;;;;16.33;2.67;;;25.50;78.70;;;;;;5079815;28;20262;-73
2024/02/12 09:31:05;;;;;;;14.03;2.50;;;25.40;78.70;;;;;;5077149;28;20229;-69
2024/02/12 09:33:35;;;;;;;16.40;2.53;;;25.30;79.30;;;;;;5079926;28;20593;-72
2024/02/12 09:36:02;;;;;;;16.60;2.90;;;25.30;78.70;;;;;;5078478;28;20235;-71
2024/02/12 09:38:30;;;;;;;17.80;3.17;;;25.30;78.90;;;;;;5075880;28;20541;-71
2024/02/12 09:40:57;;;;;;;9.67;3.07;;;25.30;79.20;;;;;;5076600;28;20717;-71
2024/02/12 09:43:26;;;;;;;18.33;3.20;;;25.30;79.30;;;;;;5074680;28;20214;-72
2024/02/12 09:45:57;;;;;;;19.30;3.43;;;25.30;79.40;;;;;;5078089;28;20187;-71
2024/02/12 09:48:25;;;;;;;19.63;3.60;;;25.30;79.40;;;;;;5074727;28;20234;-70
2024/02/12 09:50:52;;;;;;;18.00;3.27;;;25.20;79.40;;;;;;5084432;28;20172;-71
2024/02/12 09:53:20;;;;;;;18.13;3.70;;;25.30;79.20;;;;;;5077103;28;20208;-73
2024/02/12 09:55:48;;;;;;;20.37;3.63;;;25.30;79.40;;;;;;5074056;28;20266;-75
2024/02/12 09:58:16;;;;;;;16.73;3.43;;;25.30;79.50;;;;;;5074459;28;20209;-73
2024/02/12 10:00:45;;;;;;;14.53;3.47;;;25.30;79.50;;;;;;5073012;28;20190;-75
2024/02/12 10:03:13;;;;;;;13.77;3.00;;;25.30;79.70;;;;;;5073958;28;20634;-74
2024/02/12 10:05:42;;;;;;;15.40;3.30;;;25.30;79.80;;;;;;5073213;28;20660;-72
2024/02/12 10:08:38;;;;;;;15.30;3.30;;;25.20;80.10;;;;;;5074283;28;20722;-72
2024/02/12 10:11:06;;;;;;;14.50;3.87;;;25.20;80.10;;;;;;5062219;28;20560;-73
2024/02/12 10:13:34;;;;;;;16.17;3.83;;;25.20;80.40;;;;;;5073916;28;20179;-71
2024/02/12 10:16:02;;;;;;;23.43;4.53;;;25.20;80.50;;;;;;5072391;28;20262;-71
2024/02/12 10:18:29;;;;;;;16.13;3.60;;;25.10;80.80;;;;;;5079056;28;20633;-71
2024/02/12 10:20:57;;;;;;;17.23;4.17;;;25.10;80.90;;;;;;5080037;28;20217;-71
2024/02/12 10:23:25;;;;;;;17.97;4.30;;;25.10;81.00;;;;;;5074011;28;20216;-72
2024/02/12 10:25:52;;;;;;;13.73;3.50;;;25.10;81.00;;;;;;5072972;28;20172;-75
2024/02/12 10:28:22;;;;;;;12.77;3.90;;;25.00;81.20;;;;;;5075423;28;20650;-74
2024/02/12 10:30:50;;;;;;;17.77;3.90;;;25.00;81.20;;;;;;5072280;28;20183;-72
2024/02/12 10:33:17;;;;;;;14.80;4.03;;;25.00;81.00;;;;;;5073735;28;20589;-72
2024/02/12 10:35:48;;;;;;;15.23;3.67;;;25.00;81.20;;;;;;5075624;28;20553;-72
2024/02/12 10:38:16;;;;;;;22.07;4.23;;;25.10;81.20;;;;;;5073436;28;20183;-72
2024/02/12 10:40:57;;;;;;;11.13;3.17;;;25.00;81.10;;;;;;5073265;28;20187;-71
2024/02/12 10:43:26;;;;;;;14.60;3.23;;;25.00;81.30;;;;;;5071921;28;20376;-72
2024/02/12 10:45:54;;;;;;;21.77;4.63;;;25.00;81.20;;;;;;5068731;28;20183;-72
2024/02/12 10:48:22;;;;;;;20.07;3.93;;;25.00;81.70;;;;;;5075567;28;20813;-75
2024/02/12 10:50:53;;;;;;;17.57;3.67;;;24.90;81.40;;;;;;5072668;28;20183;-72
2024/02/12 10:53:26;;;;;;;21.80;4.20;;;25.00;81.70;;;;;;5076982;28;20224;-72
2024/02/12 10:55:54;;;;;;;14.97;3.63;;;24.90;81.70;;;;;;5075306;28;20183;-72
2024/02/12 10:58:23;;;;;;;18.97;4.23;;;24.90;81.90;;;;;;5070061;28;20184;-73
2024/02/12 11:00:57;;;;;;;19.33;3.87;;;24.90;81.90;;;;;;5071952;28;20191;-74
2024/02/12 11:03:54;;;;;;;17.60;3.43;;;25.00;82.20;;;;;;5066767;28;20269;-72
2024/02/12 11:06:21;;;;;;;17.90;4.10;;;24.90;82.20;;;;;;5068732;28;20299;-72
2024/02/12 11:08:49;;;;;;;16.97;3.97;;;24.90;82.20;;;;;;5071432;28;20188;-72
2024/02/12 11:11:19;;;;;;;18.43;3.93;;;24.80;82.80;;;;;;5069084;28;20191;-72
2024/02/12 11:13:48;;;;;;;19.30;4.23;;;24.90;82.60;;;;;;5072994;28;20187;-73
2024/02/12 11:16:22;;;;;;;25.27;5.30;;;24.80;82.50;;;;;;5067052;28;20187;-72
2024/02/12 11:18:58;;;;;;;20.53;4.47;;;24.80;82.60;;;;;;5067527;28;20202;-72
2024/02/12 11:21:30;;;;;;;24.80;4.93;;;24.80;82.60;;;;;;5069781;28;20179;-74
2024/02/12 11:24:07;;;;;;;18.87;4.57;;;24.80;82.90;;;;;;5071772;28;20191;-74
2024/02/12 11:26:51;;;;;;;19.93;4.30;;;24.80;82.90;;;;;;5079409;28;20247;-75
2024/02/12 11:29:19;;;;;;;20.30;4.67;;;24.80;83.20;;;;;;5071945;28;20187;-72
2024/02/12 11:31:48;;;;;;;18.27;4.47;;;24.80;83.00;;;;;;5071363;28;20182;-72
2024/02/12 11:34:20;;;;;;;20.27;4.40;;;24.80;83.30;;;;;;5071841;28;20189;-73
2024/02/12 11:37:03;;;;;;;33.10;5.10;;;24.80;83.40;;;;;;5064371;28;20231;-74
2024/02/12 11:39:31;;;;;;;22.40;4.53;;;24.80;83.20;;;;;;5071276;28;20237;-73
2024/02/12 11:41:59;;;;;;;23.37;4.53;;;24.80;83.20;;;;;;5071661;28;20175;-72
2024/02/12 11:44:26;;;;;;;21.03;4.00;;;24.70;83.50;;;;;;5070142;28;20476;-73
2024/02/12 11:47:02;;;;;;;17.27;4.50;;;24.70;83.70;;;;;;5067685;28;20195;-75
2024/02/12 11:49:29;;;;;;;21.80;4.97;;;24.60;83.70;;;;;;5071357;28;20228;-72
2024/02/12 11:51:57;;;;;;;18.47;4.53;;;24.60;83.90;;;;;;5071609;28;20187;-73
2024/02/12 11:54:26;;;;;;;22.87;4.70;;;24.60;83.80;;;;;;5076408;28;20186;-72
2024/02/12 11:56:54;;;;;;;23.90;4.67;;;24.50;83.80;;;;;;5075703;28;20351;-70
2024/02/12 11:59:21;;;;;;;26.90;5.27;;;24.60;83.70;;;;;;5071429;28;20219;-74
2024/02/12 12:01:49;;;;;;;20.07;4.57;;;24.60;83.70;;;;;;5070893;28;20224;-71
2024/02/12 12:04:17;;;;;;;20.27;4.30;;;24.60;83.50;;;;;;5071526;28;20252;-73
2024/02/12 12:06:45;;;;;;;18.13;4.13;;;24.70;83.30;;;;;;5067344;28;20215;-73
2024/02/12 12:09:12;;;;;;;19.00;4.13;;;24.60;83.30;;;;;;5072890;28;20194;-73
2024/02/12 12:11:41;;;;;;;20.67;4.60;;;24.60;83.30;;;;;;5075218;28;20633;-73
2024/02/12 12:14:10;;;;;;;23.17;4.63;;;24.60;83.20;;;;;;5068816;28;20194;-72
2024/02/12 12:16:38;;;;;;;21.33;4.33;;;24.60;83.00;;;;;;5069051;28;20180;-71
2024/02/12 12:19:06;;;;;;;18.57;4.20;;;24.60;83.00;;;;;;5070043;28;20256;-71
2024/02/12 12:21:34;;;;;;;22.57;4.50;;;24.60;83.20;;;;;;5072018;28;20621;-74
2024/02/12 12:24:02;;;;;;;18.30;5.53;;;24.60;83.10;;;;;;5070782;28;20182;-72
2024/02/12 12:26:35;;;;;;;22.00;4.23;;;24.60;83.10;;;;;;5071732;28;20236;-71
2024/02/12 12:29:03;;;;;;;19.60;4.80;;;24.50;83.20;;;;;;5071251;28;20183;-73
2024/02/12 12:31:32;;;;;;;26.67;5.00;;;24.50;83.20;;;;;;5071631;28;20175;-72
2024/02/12 12:33:59;;;;;;;20.37;4.20;;;24.50;83.20;;;;;;5071007;28;20296;-71
2024/02/12 12:36:26;;;;;;;22.23;4.43;;;24.50;83.40;;;;;;5071050;28;20247;-73
2024/02/12 12:38:54;;;;;;;19.23;4.43;;;24.50;83.40;;;;;;5071417;28;20372;-70
2024/02/12 12:41:22;;;;;;;20.07;5.00;;;24.50;83.50;;;;;;5069075;28;20183;-72
2024/02/12 12:43:50;;;;;;;26.30;4.87;;;24.50;83.40;;;;;;5070828;28;20175;-71
2024/02/12 12:46:19;;;;;;;20.50;5.40;;;24.40;83.90;;;;;;5069114;28;20172;-70
2024/02/12 12:48:46;;;;;;;21.97;5.03;;;24.40;84.10;;;;;;5067526;28;20665;-70
2024/02/12 12:51:14;;;;;;;18.53;5.03;;;24.40;83.70;;;;;;5071283;28;20206;-71
2024/02/12 12:53:41;;;;;;;23.23;5.23;;;24.40;84.00;;;;;;5071106;28;20190;-72
2024/02/12 12:56:08;;;;;;;18.87;5.13;;;24.40;84.00;;;;;;5070972;28;20191;-71
2024/02/12 12:58:36;;;;;;;25.73;5.63;;;24.40;83.90;;;;;;5069753;28;20730;-70
2024/02/12 13:01:05;;;;;;;22.63;5.53;;;24.30;84.10;;;;;;5070893;28;20217;-71
2024/02/12 13:03:33;;;;;;;20.63;5.70;;;24.30;84.30;;;;;;5071103;28;20233;-73